sensor_id;sensor_type;location;lat;lon;timestamp;temperature;humidity
6468;DHT22;3267;48.794;9.928;2024-03-08T05:17:57;6.20;99.90
6468;DHT22;3267;48.794;9.928;2024-03-08T05:20:23;5.80;99.90
6468;DHT22;3267;48.794;9.928;2024-03-08T05:22:49;6.20;99.90
6468;DHT22;3267;48.794;9.928;2024-03-08T05:27:41;6.20;99.90
6468;DHT22;3267;48.794;9.928;2024-03-08T05:30:06;5.80;99.90
6468;DHT22;3267;48.794;9.928;2024-03-08T05:32:33;5.70;99.90
6468;DHT22;3267;48.794;9.928;2024-03-08T05:42:17;6.00;99.90
6468;DHT22;3267;48.794;9.928;2024-03-08T05:44:43;5.80;99.90
6468;DHT22;3267;48.794;9.928;2024-03-08T05:52:05;6.00;99.90
6468;DHT22;3267;48.794;9.928;2024-03-08T05:59:24;5.70;99.90
6468;DHT22;3267;48.794;9.928;2024-03-08T06:01:50;5.90;99.90
6468;DHT22;3267;48.794;9.928;2024-03-08T06:04:16;6.30;99.90
6468;DHT22;3267;48.794;9.928;2024-03-08T06:06:43;6.30;99.90
6468;DHT22;3267;48.794;9.928;2024-03-08T06:09:09;6.70;99.90
6468;DHT22;3267;48.794;9.928;2024-03-08T06:18:56;6.30;99.90
6468;DHT22;3267;48.794;9.928;2024-03-08T06:36:02;7.00;99.90
6468;DHT22;3267;48.794;9.928;2024-03-08T06:48:20;7.00;99.90
6468;DHT22;3267;48.794;9.928;2024-03-08T06:50:49;7.20;99.90
6468;DHT22;3267;48.794;9.928;2024-03-08T06:55:43;6.80;99.90
6468;DHT22;3267;48.794;9.928;2024-03-08T07:00:36;6.90;99.90
6468;DHT22;3267;48.794;9.928;2024-03-08T07:10:22;6.60;99.90
6468;DHT22;3267;48.794;9.928;2024-03-08T07:12:53;6.40;99.90
6468;DHT22;3267;48.794;9.928;2024-03-08T07:17:46;6.60;99.90
6468;DHT22;3267;48.794;9.928;2024-03-08T07:27:51;6.30;99.90
6468;DHT22;3267;48.794;9.928;2024-03-08T07:30:21;6.20;99.90
6468;DHT22;3267;48.794;9.928;2024-03-08T07:33:06;6.40;99.90
6468;DHT22;3267;48.794;9.928;2024-03-08T07:35:35;6.20;99.90
6468;DHT22;3267;48.794;9.928;2024-03-08T07:38:08;5.80;99.90
6468;DHT22;3267;48.794;9.928;2024-03-08T07:40:38;6.00;99.90
6468;DHT22;3267;48.794;9.928;2024-03-08T07:43:09;5.70;99.90
6468;DHT22;3267;48.794;9.928;2024-03-08T07:48:03;6.20;99.90
6468;DHT22;3267;48.794;9.928;2024-03-08T07:50:29;6.20;99.90
6468;DHT22;3267;48.794;9.928;2024-03-08T07:55:20;6.40;99.90
6468;DHT22;3267;48.794;9.928;2024-03-08T08:00:15;6.40;99.90
6468;DHT22;3267;48.794;9.928;2024-03-08T08:02:46;6.90;99.90
6468;DHT22;3267;48.794;9.928;2024-03-08T08:05:12;6.90;99.90
6468;DHT22;3267;48.794;9.928;2024-03-08T08:07:39;6.60;99.90
6468;DHT22;3267;48.794;9.928;2024-03-08T08:10:06;6.80;99.90
6468;DHT22;3267;48.794;9.928;2024-03-08T08:12:32;6.70;99.90
6468;DHT22;3267;48.794;9.928;2024-03-08T08:14:59;6.50;99.90
6468;DHT22;3267;48.794;9.928;2024-03-08T08:19:51;6.10;99.90
6468;DHT22;3267;48.794;9.928;2024-03-08T08:24:43;6.30;99.90
6468;DHT22;3267;48.794;9.928;2024-03-08T08:34:30;7.40;99.90
6468;DHT22;3267;48.794;9.928;2024-03-08T08:36:56;7.70;99.90
6468;DHT22;3267;48.794;9.928;2024-03-08T08:44:15;8.10;99.90
6468;DHT22;3267;48.794;9.928;2024-03-08T08:49:08;7.30;99.90
6468;DHT22;3267;48.794;9.928;2024-03-08T08:51:36;7.40;99.90
6468;DHT22;3267;48.794;9.928;2024-03-08T08:54:02;7.50;99.90
6468;DHT22;3267;48.794;9.928;2024-03-08T08:58:54;6.90;99.90
6468;DHT22;3267;48.794;9.928;2024-03-08T09:01:20;7.20;99.90
6468;DHT22;3267;48.794;9.928;2024-03-08T09:06:12;7.80;99.90
6468;DHT22;3267;48.794;9.928;2024-03-08T09:08:42;7.40;99.90
6468;DHT22;3267;48.794;9.928;2024-03-08T09:11:07;7.30;99.90
6468;DHT22;3267;48.794;9.928;2024-03-08T09:13:33;7.90;99.90
6468;DHT22;3267;48.794;9.928;2024-03-08T09:18:32;7.80;99.90
6468;DHT22;3267;48.794;9.928;2024-03-08T09:21:01;8.50;99.90
6468;DHT22;3267;48.794;9.928;2024-03-08T09:25:58;7.70;99.90
6468;DHT22;3267;48.794;9.928;2024-03-08T09:28:24;7.60;99.90
6468;DHT22;3267;48.794;9.928;2024-03-08T09:30:50;8.10;99.90
6468;DHT22;3267;48.794;9.928;2024-03-08T09:33:16;8.00;99.90
6468;DHT22;3267;48.794;9.928;2024-03-08T09:35:48;8.10;99.90
6468;DHT22;3267;48.794;9.928;2024-03-08T09:40:43;7.90;99.90
6468;DHT22;3267;48.794;9.928;2024-03-08T09:45:38;8.30;99.90
6468;DHT22;3267;48.794;9.928;2024-03-08T09:48:16;8.30;99.90
6468;DHT22;3267;48.794;9.928;2024-03-08T09:50:43;8.30;99.90
6468;DHT22;3267;48.794;9.928;2024-03-08T09:53:11;8.80;99.90
6468;DHT22;3267;48.794;9.928;2024-03-08T09:58:06;9.50;99.90
6468;DHT22;3267;48.794;9.928;2024-03-08T10:00:56;11.70;99.90
6468;DHT22;3267;48.794;9.928;2024-03-08T10:03:27;9.70;99.90
6468;DHT22;3267;48.794;9.928;2024-03-08T10:05:53;9.60;99.90
6468;DHT22;3267;48.794;9.928;2024-03-08T10:08:29;12.20;99.90
6468;DHT22;3267;48.794;9.928;2024-03-08T10:10:56;12.50;99.90
6468;DHT22;3267;48.794;9.928;2024-03-08T10:13:25;9.50;99.90
6468;DHT22;3267;48.794;9.928;2024-03-08T10:15:52;9.60;99.90
6468;DHT22;3267;48.794;9.928;2024-03-08T10:18:18;9.70;99.90
6468;DHT22;3267;48.794;9.928;2024-03-08T10:20:43;9.70;99.90
6468;DHT22;3267;48.794;9.928;2024-03-08T10:23:09;10.00;99.90
6468;DHT22;3267;48.794;9.928;2024-03-08T10:25:36;11.20;99.90
6468;DHT22;3267;48.794;9.928;2024-03-08T10:28:05;9.80;99.90
6468;DHT22;3267;48.794;9.928;2024-03-08T10:32:58;10.30;99.90
6468;DHT22;3267;48.794;9.928;2024-03-08T10:35:27;10.40;99.90
6468;DHT22;3267;48.794;9.928;2024-03-08T10:38:07;10.30;99.90
6468;DHT22;3267;48.794;9.928;2024-03-08T10:40:59;10.30;99.90
6468;DHT22;3267;48.794;9.928;2024-03-08T10:47:48;10.90;99.90
6468;DHT22;3267;48.794;9.928;2024-03-08T10:50:25;11.50;99.90
6468;DHT22;3267;48.794;9.928;2024-03-08T10:53:10;11.60;99.90
6468;DHT22;3267;48.794;9.928;2024-03-08T10:56:00;11.10;99.90
6468;DHT22;3267;48.794;9.928;2024-03-08T10:58:29;11.00;99.90
6468;DHT22;3267;48.794;9.928;2024-03-08T11:01:33;11.90;99.90
6468;DHT22;3267;48.794;9.928;2024-03-08T11:03:58;11.90;99.90
6468;DHT22;3267;48.794;9.928;2024-03-08T11:09:19;11.80;99.90
6468;DHT22;3267;48.794;9.928;2024-03-08T11:11:52;12.30;99.90
6468;DHT22;3267;48.794;9.928;2024-03-08T11:14:43;13.50;99.90
6468;DHT22;3267;48.794;9.928;2024-03-08T11:17:09;11.80;99.90
6468;DHT22;3267;48.794;9.928;2024-03-08T11:19:35;14.00;99.90
6468;DHT22;3267;48.794;9.928;2024-03-08T11:22:05;13.80;99.90
6468;DHT22;3267;48.794;9.928;2024-03-08T11:24:37;12.40;99.90
6468;DHT22;3267;48.794;9.928;2024-03-08T11:27:06;16.20;99.90
6468;DHT22;3267;48.794;9.928;2024-03-08T11:29:34;15.70;99.90
6468;DHT22;3267;48.794;9.928;2024-03-08T11:32:11;12.60;99.90
6468;DHT22;3267;48.794;9.928;2024-03-08T11:34:42;12.90;99.90
6468;DHT22;3267;48.794;9.928;2024-03-08T11:37:22;13.50;99.90
6468;DHT22;3267;48.794;9.928;2024-03-08T11:39:49;12.90;99.90
6468;DHT22;3267;48.794;9.928;2024-03-08T11:42:15;14.50;99.90
6468;DHT22;3267;48.794;9.928;2024-03-08T11:44:43;13.90;99.90
6468;DHT22;3267;48.794;9.928;2024-03-08T11:47:13;13.20;99.90
6468;DHT22;3267;48.794;9.928;2024-03-08T11:49:40;15.30;99.90
6468;DHT22;3267;48.794;9.928;2024-03-08T11:52:17;13.80;99.90
6468;DHT22;3267;48.794;9.928;2024-03-08T11:54:56;15.10;99.90
6468;DHT22;3267;48.794;9.928;2024-03-08T11:57:23;13.30;99.90
6468;DHT22;3267;48.794;9.928;2024-03-08T11:59:50;13.30;99.90
6468;DHT22;3267;48.794;9.928;2024-03-08T12:02:17;13.30;99.90
6468;DHT22;3267;48.794;9.928;2024-03-08T12:04:44;13.40;99.90
6468;DHT22;3267;48.794;9.928;2024-03-08T12:07:11;13.60;99.90
6468;DHT22;3267;48.794;9.928;2024-03-08T12:09:40;14.10;99.90
6468;DHT22;3267;48.794;9.928;2024-03-08T12:12:07;15.50;99.90
6468;DHT22;3267;48.794;9.928;2024-03-08T12:14:33;13.70;99.90
6468;DHT22;3267;48.794;9.928;2024-03-08T12:16:59;15.70;99.90
6468;DHT22;3267;48.794;9.928;2024-03-08T12:19:28;16.30;99.90
6468;DHT22;3267;48.794;9.928;2024-03-08T12:21:54;14.30;99.90
6468;DHT22;3267;48.794;9.928;2024-03-08T12:24:20;14.10;99.90
6468;DHT22;3267;48.794;9.928;2024-03-08T12:26:48;14.00;99.90
6468;DHT22;3267;48.794;9.928;2024-03-08T12:31:42;14.20;99.90
6468;DHT22;3267;48.794;9.928;2024-03-08T12:34:08;14.90;99.90
6468;DHT22;3267;48.794;9.928;2024-03-08T12:36:35;14.10;99.90
6468;DHT22;3267;48.794;9.928;2024-03-08T12:39:05;16.50;99.90
6468;DHT22;3267;48.794;9.928;2024-03-08T12:41:39;14.60;99.90
6468;DHT22;3267;48.794;9.928;2024-03-08T12:44:05;16.90;99.90
6468;DHT22;3267;48.794;9.928;2024-03-08T12:46:33;14.80;99.90
6468;DHT22;3267;48.794;9.928;2024-03-08T12:49:00;14.70;99.90
6468;DHT22;3267;48.794;9.928;2024-03-08T12:51:26;14.70;99.90
6468;DHT22;3267;48.794;9.928;2024-03-08T12:53:51;14.70;99.90
6468;DHT22;3267;48.794;9.928;2024-03-08T12:56:41;15.70;99.90
6468;DHT22;3267;48.794;9.928;2024-03-08T12:59:08;15.00;99.90
6468;DHT22;3267;48.794;9.928;2024-03-08T13:01:34;16.60;99.90
6468;DHT22;3267;48.794;9.928;2024-03-08T13:04:03;15.60;99.90
6468;DHT22;3267;48.794;9.928;2024-03-08T13:06:29;15.20;99.90
6468;DHT22;3267;48.794;9.928;2024-03-08T13:08:56;15.30;99.90
6468;DHT22;3267;48.794;9.928;2024-03-08T13:11:24;16.70;99.90
6468;DHT22;3267;48.794;9.928;2024-03-08T13:13:50;16.10;99.90
6468;DHT22;3267;48.794;9.928;2024-03-08T13:16:16;15.60;99.90
6468;DHT22;3267;48.794;9.928;2024-03-08T13:18:45;15.90;99.90
6468;DHT22;3267;48.794;9.928;2024-03-08T13:21:11;16.40;99.90
6468;DHT22;3267;48.794;9.928;2024-03-08T13:23:40;15.60;99.90
6468;DHT22;3267;48.794;9.928;2024-03-08T13:26:07;16.20;99.90
6468;DHT22;3267;48.794;9.928;2024-03-08T13:28:33;15.90;99.90
6468;DHT22;3267;48.794;9.928;2024-03-08T13:31:05;16.10;99.90
6468;DHT22;3267;48.794;9.928;2024-03-08T13:33:39;16.30;99.90
6468;DHT22;3267;48.794;9.928;2024-03-08T13:36:08;16.20;99.90
6468;DHT22;3267;48.794;9.928;2024-03-08T13:38:44;16.20;99.90
6468;DHT22;3267;48.794;9.928;2024-03-08T13:41:11;16.50;99.90
6468;DHT22;3267;48.794;9.928;2024-03-08T13:43:37;16.90;99.90
6468;DHT22;3267;48.794;9.928;2024-03-08T13:46:04;17.10;99.90
6468;DHT22;3267;48.794;9.928;2024-03-08T13:48:30;17.10;99.90
6468;DHT22;3267;48.794;9.928;2024-03-08T13:50:57;17.40;99.90
6468;DHT22;3267;48.794;9.928;2024-03-08T13:53:22;17.30;99.90
6468;DHT22;3267;48.794;9.928;2024-03-08T13:55:49;17.50;99.90
6468;DHT22;3267;48.794;9.928;2024-03-08T13:58:16;18.80;99.90
6468;DHT22;3267;48.794;9.928;2024-03-08T14:00:43;18.30;99.90
6468;DHT22;3267;48.794;9.928;2024-03-08T14:03:11;18.30;99.90
6468;DHT22;3267;48.794;9.928;2024-03-08T14:05:41;18.50;99.90
6468;DHT22;3267;48.794;9.928;2024-03-08T14:08:08;18.70;99.90
6468;DHT22;3267;48.794;9.928;2024-03-08T14:10:35;19.20;99.90
6468;DHT22;3267;48.794;9.928;2024-03-08T14:13:03;19.40;99.90
6468;DHT22;3267;48.794;9.928;2024-03-08T14:15:31;19.60;99.90
6468;DHT22;3267;48.794;9.928;2024-03-08T14:17:57;19.90;99.90
6468;DHT22;3267;48.794;9.928;2024-03-08T14:20:23;20.40;99.90
6468;DHT22;3267;48.794;9.928;2024-03-08T14:22:55;20.60;99.90
6468;DHT22;3267;48.794;9.928;2024-03-08T14:25:21;21.00;99.90
6468;DHT22;3267;48.794;9.928;2024-03-08T14:27:50;22.80;99.90
6468;DHT22;3267;48.794;9.928;2024-03-08T14:30:19;21.30;99.90
6468;DHT22;3267;48.794;9.928;2024-03-08T14:33:08;21.80;99.90
6468;DHT22;3267;48.794;9.928;2024-03-08T14:35:37;22.00;99.90
6468;DHT22;3267;48.794;9.928;2024-03-08T14:38:03;22.10;99.90
6468;DHT22;3267;48.794;9.928;2024-03-08T14:40:29;22.40;99.90
6468;DHT22;3267;48.794;9.928;2024-03-08T14:42:56;22.60;99.90
6468;DHT22;3267;48.794;9.928;2024-03-08T14:45:22;22.60;97.50
6468;DHT22;3267;48.794;9.928;2024-03-08T14:47:50;25.10;99.90
6468;DHT22;3267;48.794;9.928;2024-03-08T14:50:20;25.20;99.90
6468;DHT22;3267;48.794;9.928;2024-03-08T14:52:46;23.10;99.90
6468;DHT22;3267;48.794;9.928;2024-03-08T14:55:22;23.30;99.90
6468;DHT22;3267;48.794;9.928;2024-03-08T14:57:51;23.50;99.90
6468;DHT22;3267;48.794;9.928;2024-03-08T15:00:19;23.70;99.70
6468;DHT22;3267;48.794;9.928;2024-03-08T15:03:01;23.80;97.30
6468;DHT22;3267;48.794;9.928;2024-03-08T15:05:27;24.00;99.90
6468;DHT22;3267;48.794;9.928;2024-03-08T15:07:54;24.50;99.00
6468;DHT22;3267;48.794;9.928;2024-03-08T15:10:20;23.70;97.60
6468;DHT22;3267;48.794;9.928;2024-03-08T15:12:49;23.30;96.90
6468;DHT22;3267;48.794;9.928;2024-03-08T15:15:18;22.60;97.60
6468;DHT22;3267;48.794;9.928;2024-03-08T15:17:44;22.10;98.70
6468;DHT22;3267;48.794;9.928;2024-03-08T15:20:13;21.70;99.50
6468;DHT22;3267;48.794;9.928;2024-03-08T15:22:53;21.20;98.10
6468;DHT22;3267;48.794;9.928;2024-03-08T15:25:21;22.30;99.90
6468;DHT22;3267;48.794;9.928;2024-03-08T15:27:54;21.00;99.90
6468;DHT22;3267;48.794;9.928;2024-03-08T15:30:23;20.90;99.90
6468;DHT22;3267;48.794;9.928;2024-03-08T15:32:52;21.10;99.90
6468;DHT22;3267;48.794;9.928;2024-03-08T15:35:26;20.00;99.90
6468;DHT22;3267;48.794;9.928;2024-03-08T15:37:54;19.50;99.90
6468;DHT22;3267;48.794;9.928;2024-03-08T15:40:23;19.60;99.90
6468;DHT22;3267;48.794;9.928;2024-03-08T15:45:20;19.40;99.90
6468;DHT22;3267;48.794;9.928;2024-03-08T15:47:46;21.20;99.90
6468;DHT22;3267;48.794;9.928;2024-03-08T15:50:12;19.40;99.90
6468;DHT22;3267;48.794;9.928;2024-03-08T15:52:46;19.20;99.90
6468;DHT22;3267;48.794;9.928;2024-03-08T15:55:16;19.40;99.90
6468;DHT22;3267;48.794;9.928;2024-03-08T15:57:51;19.30;99.90
6468;DHT22;3267;48.794;9.928;2024-03-08T16:00:18;18.90;99.90
6468;DHT22;3267;48.794;9.928;2024-03-08T16:02:59;18.30;99.90
6468;DHT22;3267;48.794;9.928;2024-03-08T16:05:25;17.90;97.80
6468;DHT22;3267;48.794;9.928;2024-03-08T16:07:52;17.60;98.50
6468;DHT22;3267;48.794;9.928;2024-03-08T16:10:18;17.30;95.80
6468;DHT22;3267;48.794;9.928;2024-03-08T16:12:45;18.70;97.20
6468;DHT22;3267;48.794;9.928;2024-03-08T16:15:11;16.90;97.00
6468;DHT22;3267;48.794;9.928;2024-03-08T16:17:36;16.80;96.50
6468;DHT22;3267;48.794;9.928;2024-03-08T16:20:02;16.70;97.60
6468;DHT22;3267;48.794;9.928;2024-03-08T16:22:30;16.50;96.60
6468;DHT22;3267;48.794;9.928;2024-03-08T16:24:56;16.50;95.90
6468;DHT22;3267;48.794;9.928;2024-03-08T16:27:22;16.30;94.50
6468;DHT22;3267;48.794;9.928;2024-03-08T16:29:48;16.20;95.20
6468;DHT22;3267;48.794;9.928;2024-03-08T16:32:17;16.10;94.10
6468;DHT22;3267;48.794;9.928;2024-03-08T16:34:45;15.90;94.10
6468;DHT22;3267;48.794;9.928;2024-03-08T16:37:11;15.90;94.00
6468;DHT22;3267;48.794;9.928;2024-03-08T16:39:37;15.70;94.50
6468;DHT22;3267;48.794;9.928;2024-03-08T16:42:02;15.70;94.40
6468;DHT22;3267;48.794;9.928;2024-03-08T16:44:30;15.80;97.50
6468;DHT22;3267;48.794;9.928;2024-03-08T16:46:59;15.70;95.40
6468;DHT22;3267;48.794;9.928;2024-03-08T16:49:25;15.90;97.10
6468;DHT22;3267;48.794;9.928;2024-03-08T16:51:51;15.50;93.60
6468;DHT22;3267;48.794;9.928;2024-03-08T16:54:16;15.30;96.00
6468;DHT22;3267;48.794;9.928;2024-03-08T16:57:16;15.10;92.80
6468;DHT22;3267;48.794;9.928;2024-03-08T16:59:54;15.30;94.00
6468;DHT22;3267;48.794;9.928;2024-03-08T17:06:30;13.40;93.70
6468;DHT22;3267;48.794;9.928;2024-03-08T17:13:18;13.10;95.90
6468;DHT22;3267;48.794;9.928;2024-03-08T17:20:38;13.10;97.80
6468;DHT22;3267;48.794;9.928;2024-03-08T17:23:10;11.60;95.10
6468;DHT22;3267;48.794;9.928;2024-03-08T17:26:33;14.80;99.90
6468;DHT22;3267;48.794;9.928;2024-03-08T17:29:26;12.60;99.90
6468;DHT22;3267;48.794;9.928;2024-03-08T17:35:09;16.70;99.90
6468;DHT22;3267;48.794;9.928;2024-03-08T17:38:11;14.50;99.90
6468;DHT22;3267;48.794;9.928;2024-03-08T17:40:39;14.70;99.90
6468;DHT22;3267;48.794;9.928;2024-03-08T17:43:34;15.70;99.90
6468;DHT22;3267;48.794;9.928;2024-03-08T17:48:52;14.80;99.90
6468;DHT22;3267;48.794;9.928;2024-03-08T17:51:38;15.90;99.90
6468;DHT22;3267;48.794;9.928;2024-03-08T17:54:10;14.50;99.90
6468;DHT22;3267;48.794;9.928;2024-03-08T17:56:43;16.30;99.80
6468;DHT22;3267;48.794;9.928;2024-03-08T17:59:12;14.60;99.90
6468;DHT22;3267;48.794;9.928;2024-03-08T18:01:38;14.60;99.90
6468;DHT22;3267;48.794;9.928;2024-03-08T18:04:05;14.70;99.90
6468;DHT22;3267;48.794;9.928;2024-03-08T18:06:35;14.40;99.90
6468;DHT22;3267;48.794;9.928;2024-03-08T18:09:03;14.60;99.90
6468;DHT22;3267;48.794;9.928;2024-03-08T18:11:31;14.30;99.90
6468;DHT22;3267;48.794;9.928;2024-03-08T18:14:00;14.20;99.90
6468;DHT22;3267;48.794;9.928;2024-03-08T18:16:25;14.60;99.90
6468;DHT22;3267;48.794;9.928;2024-03-08T18:18:51;15.30;99.90
6468;DHT22;3267;48.794;9.928;2024-03-08T18:21:18;14.10;99.90
6468;DHT22;3267;48.794;9.928;2024-03-08T18:23:44;15.20;99.90
6468;DHT22;3267;48.794;9.928;2024-03-08T18:26:10;14.50;99.90
6468;DHT22;3267;48.794;9.928;2024-03-08T18:28:36;14.80;99.90
6468;DHT22;3267;48.794;9.928;2024-03-08T18:31:03;14.90;99.90
6468;DHT22;3267;48.794;9.928;2024-03-08T18:33:29;14.30;99.90
6468;DHT22;3267;48.794;9.928;2024-03-08T18:35:58;15.30;99.90
6468;DHT22;3267;48.794;9.928;2024-03-08T18:38:24;14.80;99.90
6468;DHT22;3267;48.794;9.928;2024-03-08T18:40:51;14.10;99.90
6468;DHT22;3267;48.794;9.928;2024-03-08T18:43:18;14.40;99.90
6468;DHT22;3267;48.794;9.928;2024-03-08T18:45:45;15.30;99.90
6468;DHT22;3267;48.794;9.928;2024-03-08T18:48:12;14.60;99.90
6468;DHT22;3267;48.794;9.928;2024-03-08T18:50:40;15.60;99.90
6468;DHT22;3267;48.794;9.928;2024-03-08T18:53:07;14.30;99.90
6468;DHT22;3267;48.794;9.928;2024-03-08T18:55:34;14.70;99.90
6468;DHT22;3267;48.794;9.928;2024-03-08T18:58:00;15.00;99.90
6468;DHT22;3267;48.794;9.928;2024-03-08T19:00:29;14.40;99.90
6468;DHT22;3267;48.794;9.928;2024-03-08T19:02:56;14.20;99.90
6468;DHT22;3267;48.794;9.928;2024-03-08T19:05:23;14.00;99.90
6468;DHT22;3267;48.794;9.928;2024-03-08T19:07:51;15.20;99.90
6468;DHT22;3267;48.794;9.928;2024-03-08T19:10:19;14.10;99.90
6468;DHT22;3267;48.794;9.928;2024-03-08T19:12:46;14.20;99.90
6468;DHT22;3267;48.794;9.928;2024-03-08T19:15:14;14.40;99.90
6468;DHT22;3267;48.794;9.928;2024-03-08T19:17:44;14.40;99.90
6468;DHT22;3267;48.794;9.928;2024-03-08T19:20:11;14.50;99.90
6468;DHT22;3267;48.794;9.928;2024-03-08T19:22:45;14.10;99.90
6468;DHT22;3267;48.794;9.928;2024-03-08T19:25:11;13.80;99.90
6468;DHT22;3267;48.794;9.928;2024-03-08T19:27:38;14.00;99.90
6468;DHT22;3267;48.794;9.928;2024-03-08T19:30:06;14.00;99.90
6468;DHT22;3267;48.794;9.928;2024-03-08T19:32:32;13.80;99.90
6468;DHT22;3267;48.794;9.928;2024-03-08T19:35:00;13.80;99.90
6468;DHT22;3267;48.794;9.928;2024-03-08T19:37:26;13.60;99.90
6468;DHT22;3267;48.794;9.928;2024-03-08T19:39:54;13.60;99.90
6468;DHT22;3267;48.794;9.928;2024-03-08T19:42:20;13.80;99.90
6468;DHT22;3267;48.794;9.928;2024-03-08T19:44:49;13.50;99.90
6468;DHT22;3267;48.794;9.928;2024-03-08T19:47:16;13.30;99.90
6468;DHT22;3267;48.794;9.928;2024-03-08T19:49:42;12.80;99.90
6468;DHT22;3267;48.794;9.928;2024-03-08T19:52:08;12.80;99.90
6468;DHT22;3267;48.794;9.928;2024-03-08T19:54:36;12.80;99.90
6468;DHT22;3267;48.794;9.928;2024-03-08T19:57:04;12.70;99.90
6468;DHT22;3267;48.794;9.928;2024-03-08T19:59:35;12.50;99.90
6468;DHT22;3267;48.794;9.928;2024-03-08T20:02:08;12.70;99.90
6468;DHT22;3267;48.794;9.928;2024-03-08T20:04:34;12.60;99.90
6468;DHT22;3267;48.794;9.928;2024-03-08T20:07:00;12.80;99.90
6468;DHT22;3267;48.794;9.928;2024-03-08T20:09:26;13.00;99.90
6468;DHT22;3267;48.794;9.928;2024-03-08T20:11:55;16.60;99.90
6468;DHT22;3267;48.794;9.928;2024-03-08T20:14:20;13.00;99.90
6468;DHT22;3267;48.794;9.928;2024-03-08T20:16:46;13.10;99.90
6468;DHT22;3267;48.794;9.928;2024-03-08T20:19:13;12.90;99.90
6468;DHT22;3267;48.794;9.928;2024-03-08T20:21:39;12.70;99.90
6468;DHT22;3267;48.794;9.928;2024-03-08T20:24:05;12.70;99.90
6468;DHT22;3267;48.794;9.928;2024-03-08T20:26:30;12.40;99.90
6468;DHT22;3267;48.794;9.928;2024-03-08T20:28:56;12.40;99.90
6468;DHT22;3267;48.794;9.928;2024-03-08T20:31:23;12.70;99.90
6468;DHT22;3267;48.794;9.928;2024-03-08T20:33:49;12.70;99.90
6468;DHT22;3267;48.794;9.928;2024-03-08T20:36:15;12.50;99.90
6468;DHT22;3267;48.794;9.928;2024-03-08T20:38:43;12.10;99.90
6468;DHT22;3267;48.794;9.928;2024-03-08T20:41:09;12.30;99.90
6468;DHT22;3267;48.794;9.928;2024-03-08T20:43:37;12.40;99.90
6468;DHT22;3267;48.794;9.928;2024-03-08T20:46:03;12.10;99.90
6468;DHT22;3267;48.794;9.928;2024-03-08T20:48:32;11.90;99.90
6468;DHT22;3267;48.794;9.928;2024-03-08T20:51:00;12.10;99.90
6468;DHT22;3267;48.794;9.928;2024-03-08T20:53:27;12.00;99.90
6468;DHT22;3267;48.794;9.928;2024-03-08T20:55:53;11.70;99.90
6468;DHT22;3267;48.794;9.928;2024-03-08T20:58:20;11.80;99.90
6468;DHT22;3267;48.794;9.928;2024-03-08T21:00:47;11.90;99.90
6468;DHT22;3267;48.794;9.928;2024-03-08T21:05:46;11.80;99.90
6468;DHT22;3267;48.794;9.928;2024-03-08T21:08:21;12.40;99.90
6468;DHT22;3267;48.794;9.928;2024-03-08T21:10:51;12.30;99.90
6468;DHT22;3267;48.794;9.928;2024-03-08T21:13:17;12.30;99.90
6468;DHT22;3267;48.794;9.928;2024-03-08T21:15:42;12.50;99.90
6468;DHT22;3267;48.794;9.928;2024-03-08T21:18:10;12.10;99.90
6468;DHT22;3267;48.794;9.928;2024-03-08T21:20:36;11.90;99.90
6468;DHT22;3267;48.794;9.928;2024-03-08T21:23:02;11.80;99.90
6468;DHT22;3267;48.794;9.928;2024-03-08T21:25:31;12.00;99.90
6468;DHT22;3267;48.794;9.928;2024-03-08T21:28:03;12.00;99.90
6468;DHT22;3267;48.794;9.928;2024-03-08T21:30:32;12.20;99.90
6468;DHT22;3267;48.794;9.928;2024-03-08T21:32:58;11.80;99.90
6468;DHT22;3267;48.794;9.928;2024-03-08T21:35:26;11.70;99.90
6468;DHT22;3267;48.794;9.928;2024-03-08T21:40:19;11.40;99.90
6468;DHT22;3267;48.794;9.928;2024-03-08T21:42:55;11.10;99.80
6468;DHT22;3267;48.794;9.928;2024-03-08T21:45:23;10.90;99.90
6468;DHT22;3267;48.794;9.928;2024-03-08T21:47:56;10.80;99.90
6468;DHT22;3267;48.794;9.928;2024-03-08T21:50:28;10.80;99.90
6468;DHT22;3267;48.794;9.928;2024-03-08T21:52:56;10.70;99.90
6468;DHT22;3267;48.794;9.928;2024-03-08T21:55:22;10.90;99.90
6468;DHT22;3267;48.794;9.928;2024-03-08T21:57:50;10.70;99.70
